Time;durP1;ratioP1;P1;durP2;ratioP2;P2;SDS_P1;SDS_P2;PMS_P1;PMS_P2;Temp;Humidity;BMP_temperature;BMP_pressure;BME280_temperature;BME280_humidity;BME280_pressure;Samples;Min_cycle;Max_cycle;Signal;HPM_P1;HPM_P2
2023/07/22 00:00:39;;;;;;;6.50;2.17;;;14.60;99.90;;;;;;5077116;28;20044;-80
2023/07/22 00:03:05;;;;;;;7.43;2.28;;;14.60;99.90;;;;;;5059784;28;20418;-80
2023/07/22 00:05:33;;;;;;;5.72;2.08;;;14.60;99.90;;;;;;5058349;28;20063;-79
2023/07/22 00:08:00;;;;;;;10.57;2.30;;;14.50;99.90;;;;;;5059874;28;20040;-80
2023/07/22 00:10:27;;;;;;;5.72;1.83;;;14.50;99.90;;;;;;5059441;28;20139;-79
2023/07/22 00:12:53;;;;;;;7.10;2.30;;;14.40;99.90;;;;;;5075955;28;20044;-80
2023/07/22 00:15:22;;;;;;;6.60;2.25;;;14.40;99.90;;;;;;5075230;28;20044;-79
2023/07/22 00:17:49;;;;;;;5.07;1.75;;;14.40;99.90;;;;;;5059138;28;20044;-80
2023/07/22 00:20:16;;;;;;;7.45;2.20;;;14.40;99.90;;;;;;5076273;28;20489;-79
2023/07/22 00:22:42;;;;;;;5.15;1.90;;;14.40;99.90;;;;;;5059373;28;20433;-79
2023/07/22 00:25:10;;;;;;;6.65;2.38;;;14.40;99.90;;;;;;5057821;28;20439;-80
2023/07/22 00:27:37;;;;;;;7.50;2.13;;;14.30;99.90;;;;;;5059511;28;20040;-80
2023/07/22 00:30:04;;;;;;;4.28;1.63;;;14.30;99.90;;;;;;5042482;28;20070;-80
2023/07/22 00:32:30;;;;;;;7.32;2.53;;;14.40;99.90;;;;;;5058242;28;20339;-80
2023/07/22 00:34:57;;;;;;;9.82;2.30;;;14.40;99.90;;;;;;5076483;28;20460;-79
2023/07/22 00:37:25;;;;;;;7.00;1.80;;;14.30;99.90;;;;;;5076305;28;20090;-79
2023/07/22 00:39:52;;;;;;;4.80;1.70;;;14.30;99.90;;;;;;5058264;28;20105;-79
2023/07/22 00:42:20;;;;;;;5.75;1.92;;;14.40;99.90;;;;;;5057998;28;20108;-80
2023/07/22 00:44:47;;;;;;;5.90;1.98;;;14.40;99.90;;;;;;5057596;28;20045;-79
2023/07/22 00:47:15;;;;;;;5.05;1.95;;;14.40;99.90;;;;;;5041996;28;20059;-80
2023/07/22 00:49:42;;;;;;;5.65;1.60;;;14.40;99.90;;;;;;5058465;28;20036;-80
2023/07/22 00:52:08;;;;;;;7.25;1.73;;;14.40;99.90;;;;;;5041083;28;20475;-77
2023/07/22 00:54:35;;;;;;;3.17;1.40;;;14.40;99.90;;;;;;5058580;28;20041;-78
2023/07/22 00:57:03;;;;;;;5.07;1.88;;;14.30;99.90;;;;;;5041951;28;20045;-79
2023/07/22 00:59:30;;;;;;;3.47;1.40;;;14.30;99.90;;;;;;5057369;28;20048;-79
2023/07/22 01:01:56;;;;;;;5.13;1.95;;;14.40;99.90;;;;;;5041601;28;20462;-79
2023/07/22 01:04:23;;;;;;;4.97;1.67;;;14.30;99.90;;;;;;5076031;28;20052;-77
2023/07/22 01:06:55;;;;;;;4.97;1.65;;;14.30;99.90;;;;;;5040793;28;20040;-78
2023/07/22 01:09:22;;;;;;;4.43;1.73;;;14.30;99.90;;;;;;5058393;28;20387;-79
2023/07/22 01:11:49;;;;;;;7.07;2.08;;;14.30;99.90;;;;;;5057428;28;20056;-79
2023/07/22 01:14:16;;;;;;;10.25;1.85;;;14.40;99.90;;;;;;5075700;28;20051;-79
2023/07/22 01:16:44;;;;;;;4.70;1.60;;;14.40;99.90;;;;;;5075733;28;20098;-79
2023/07/22 01:19:11;;;;;;;6.07;1.85;;;14.40;99.90;;;;;;5057067;28;20041;-79
2023/07/22 01:21:38;;;;;;;7.50;1.60;;;14.40;99.90;;;;;;5041267;28;20102;-79
2023/07/22 01:24:05;;;;;;;4.43;1.40;;;14.40;99.90;;;;;;5075406;28;20434;-79
2023/07/22 01:26:32;;;;;;;10.90;1.73;;;14.40;99.90;;;;;;5057245;28;20040;-80
2023/07/22 01:28:59;;;;;;;4.10;1.35;;;14.40;99.90;;;;;;5075411;28;20044;-78
2023/07/22 01:31:25;;;;;;;9.35;1.63;;;14.40;99.90;;;;;;5058163;28;20094;-79
2023/07/22 01:33:52;;;;;;;4.85;1.77;;;14.40;99.90;;;;;;5074515;28;20528;-78
2023/07/22 01:36:20;;;;;;;5.25;1.40;;;14.30;99.90;;;;;;5057695;28;20056;-79
2023/07/22 01:38:47;;;;;;;5.22;1.70;;;14.30;99.90;;;;;;5074336;28;20048;-79
2023/07/22 01:41:13;;;;;;;12.40;1.88;;;14.40;99.90;;;;;;5074676;28;20125;-78
2023/07/22 01:43:40;;;;;;;4.72;1.50;;;14.30;99.90;;;;;;5057837;28;20044;-79
2023/07/22 01:46:07;;;;;;;3.78;1.33;;;14.40;99.90;;;;;;5073892;28;20044;-79
2023/07/22 01:48:34;;;;;;;5.72;1.85;;;14.40;99.90;;;;;;5041426;28;20051;-79
2023/07/22 01:51:00;;;;;;;3.78;1.30;;;14.40;99.90;;;;;;5057319;28;20057;-79
2023/07/22 01:53:27;;;;;;;4.25;1.40;;;14.40;99.90;;;;;;5056505;28;20482;-78
2023/07/22 01:55:54;;;;;;;6.70;1.60;;;14.40;99.90;;;;;;5057086;28;20071;-79
2023/07/22 01:58:21;;;;;;;3.20;1.30;;;14.40;99.90;;;;;;5073956;28;20040;-78
2023/07/22 02:00:48;;;;;;;5.93;1.77;;;14.30;99.90;;;;;;5057232;28;20052;-78
2023/07/22 02:03:14;;;;;;;5.38;1.45;;;14.30;99.90;;;;;;5057233;28;20067;-78
2023/07/22 02:05:41;;;;;;;4.20;1.30;;;14.30;99.90;;;;;;5055875;28;20047;-79
2023/07/22 02:08:08;;;;;;;5.90;1.70;;;14.20;99.90;;;;;;5057249;28;20052;-78
2023/07/22 02:10:35;;;;;;;7.18;1.40;;;14.20;99.90;;;;;;5075223;28;20040;-79
2023/07/22 02:13:04;;;;;;;6.28;1.73;;;14.20;99.90;;;;;;5056187;28;20059;-78
2023/07/22 02:15:32;;;;;;;4.18;1.27;;;14.20;99.90;;;;;;5056684;28;20142;-79
2023/07/22 02:17:58;;;;;;;4.43;1.33;;;14.20;99.90;;;;;;5057325;28;20048;-78
2023/07/22 02:20:28;;;;;;;3.67;1.42;;;14.20;99.90;;;;;;5039959;28;20048;-78
2023/07/22 02:22:55;;;;;;;6.22;1.73;;;14.20;99.90;;;;;;5057132;28;20066;-79
2023/07/22 02:25:22;;;;;;;4.85;1.70;;;14.20;99.90;;;;;;5074036;28;20041;-79
2023/07/22 02:27:50;;;;;;;4.10;1.45;;;14.20;99.90;;;;;;5074438;28;20044;-78
2023/07/22 02:30:17;;;;;;;8.75;1.80;;;14.20;99.90;;;;;;5057197;28;20040;-78
2023/07/22 02:32:44;;;;;;;4.43;1.65;;;14.20;99.90;;;;;;5074066;28;20045;-78
2023/07/22 02:35:11;;;;;;;6.70;1.52;;;14.20;99.90;;;;;;5074230;28;20056;-81
2023/07/22 02:37:38;;;;;;;4.10;1.30;;;14.30;99.90;;;;;;5057188;28;20359;-78
2023/07/22 02:40:11;;;;;;;8.20;1.65;;;14.30;99.90;;;;;;5055962;28;20470;-78
2023/07/22 02:42:37;;;;;;;4.30;1.85;;;14.30;99.90;;;;;;5056687;28;20053;-79
2023/07/22 02:45:04;;;;;;;6.13;2.33;;;14.30;99.90;;;;;;5073363;28;20037;-79
2023/07/22 02:47:32;;;;;;;5.85;1.60;;;14.30;99.90;;;;;;5074432;28;20344;-79
2023/07/22 02:49:59;;;;;;;6.78;1.75;;;14.40;99.90;;;;;;5056873;28;20387;-78
2023/07/22 02:52:26;;;;;;;6.38;1.60;;;14.40;99.90;;;;;;5055806;28;20443;-78
2023/07/22 02:54:52;;;;;;;5.82;1.48;;;14.40;99.90;;;;;;5074628;28;20051;-79
2023/07/22 02:57:19;;;;;;;7.18;2.03;;;14.40;99.90;;;;;;5074695;28;20063;-78
2023/07/22 02:59:46;;;;;;;6.68;1.42;;;14.40;99.90;;;;;;5073580;28;20549;-78
2023/07/22 03:02:14;;;;;;;6.70;1.80;;;14.40;99.90;;;;;;5074173;28;20079;-79
2023/07/22 03:04:41;;;;;;;5.20;1.70;;;14.40;99.90;;;;;;5039859;28;20040;-79
2023/07/22 03:07:08;;;;;;;4.47;1.50;;;14.40;99.90;;;;;;5073803;28;20105;-79
2023/07/22 03:09:35;;;;;;;6.45;1.73;;;14.40;99.90;;;;;;5060405;28;20041;-79
2023/07/22 03:12:02;;;;;;;4.68;1.63;;;14.40;99.90;;;;;;5077333;28;20098;-78
2023/07/22 03:14:29;;;;;;;6.03;1.77;;;14.40;99.90;;;;;;5060807;28;20550;-78
2023/07/22 03:16:56;;;;;;;5.82;1.60;;;14.30;99.90;;;;;;5077986;28;20371;-78
2023/07/22 03:19:22;;;;;;;6.47;1.80;;;14.40;99.90;;;;;;5077476;28;20040;-78
2023/07/22 03:21:49;;;;;;;6.25;1.55;;;14.40;99.90;;;;;;5060292;28;20454;-79
2023/07/22 03:24:16;;;;;;;6.07;1.80;;;14.40;99.90;;;;;;5077633;28;20070;-79
2023/07/22 03:26:44;;;;;;;7.50;2.25;;;14.40;99.90;;;;;;5076704;28;20041;-79
2023/07/22 03:29:10;;;;;;;9.73;2.00;;;14.40;99.90;;;;;;5060068;28;20037;-79
2023/07/22 03:31:37;;;;;;;7.60;1.45;;;14.40;99.90;;;;;;5076844;28;20048;-79
2023/07/22 03:34:04;;;;;;;5.10;1.80;;;14.50;99.90;;;;;;5043294;28;20135;-79
2023/07/22 03:36:34;;;;;;;6.45;1.42;;;14.40;99.90;;;;;;5060121;28;20044;-79
2023/07/22 03:39:01;;;;;;;5.55;1.60;;;14.50;99.90;;;;;;5077111;28;20044;-79
2023/07/22 03:41:28;;;;;;;5.40;1.95;;;14.40;99.90;;;;;;5077118;28;20508;-79
2023/07/22 03:43:54;;;;;;;5.50;1.85;;;14.50;99.90;;;;;;5077242;28;20044;-79
2023/07/22 03:46:23;;;;;;;6.28;1.70;;;14.40;99.90;;;;;;5076450;28;20045;-79
2023/07/22 03:48:51;;;;;;;4.32;1.63;;;14.50;99.90;;;;;;5059930;28;20051;-80
2023/07/22 03:51:17;;;;;;;7.78;1.67;;;14.40;99.90;;;;;;5059720;28;20048;-79
2023/07/22 03:53:46;;;;;;;5.43;1.75;;;14.50;99.90;;;;;;5058848;28;20106;-77
2023/07/22 03:56:14;;;;;;;5.40;1.60;;;14.50;99.90;;;;;;5058701;28;20040;-78
2023/07/22 03:58:41;;;;;;;5.85;1.88;;;14.50;99.90;;;;;;5076787;28;20051;-79
2023/07/22 04:01:08;;;;;;;5.63;1.55;;;14.50;99.90;;;;;;5077436;28;20483;-79
2023/07/22 04:03:35;;;;;;;5.75;1.27;;;14.50;99.90;;;;;;5077065;28;20047;-79
2023/07/22 04:06:02;;;;;;;5.00;1.83;;;14.50;99.90;;;;;;5058022;28;20032;-79
2023/07/22 04:08:29;;;;;;;10.65;1.90;;;14.50;99.90;;;;;;5077571;28;20063;-79
2023/07/22 04:10:56;;;;;;;5.50;1.40;;;14.50;99.90;;;;;;5043090;28;20120;-80
2023/07/22 04:13:23;;;;;;;5.35;1.73;;;14.60;99.90;;;;;;5042000;28;20482;-79
2023/07/22 04:15:49;;;;;;;5.90;1.60;;;14.50;99.90;;;;;;5076437;28;20044;-79
2023/07/22 04:18:16;;;;;;;4.53;1.75;;;14.50;99.90;;;;;;5058248;28;20113;-79
2023/07/22 04:20:43;;;;;;;6.03;1.70;;;14.50;99.90;;;;;;5059156;28;20459;-79
2023/07/22 04:23:10;;;;;;;9.93;1.88;;;14.50;99.90;;;;;;5076780;28;20379;-79
2023/07/22 04:25:39;;;;;;;7.20;1.92;;;14.50;99.90;;;;;;5058396;28;20048;-79
2023/07/22 04:28:06;;;;;;;3.65;1.40;;;14.40;99.90;;;;;;5076533;28;20513;-79
2023/07/22 04:30:32;;;;;;;4.80;1.52;;;14.40;99.90;;;;;;5059394;28;20056;-79
2023/07/22 04:32:59;;;;;;;9.52;2.33;;;14.40;99.90;;;;;;5058111;28;20463;-80
2023/07/22 04:38:15;;;;;;;6.85;1.55;;;14.40;99.90;;;;;;5058333;28;20048;-79
2023/07/22 04:40:42;;;;;;;11.77;1.90;;;14.50;99.90;;;;;;5076390;28;20578;-78
2023/07/22 04:43:08;;;;;;;4.63;1.52;;;14.50;99.90;;;;;;5058907;28;20147;-78
2023/07/22 04:45:40;;;;;;;6.28;1.40;;;14.60;99.90;;;;;;5075456;28;20078;-78
2023/07/22 04:48:06;;;;;;;5.22;1.77;;;14.60;99.90;;;;;;5076268;28;20048;-78
2023/07/22 04:50:33;;;;;;;5.30;1.63;;;14.60;99.90;;;;;;5076297;28;20045;-78
2023/07/22 04:53:00;;;;;;;5.47;1.67;;;14.70;99.90;;;;;;5058136;28;20068;-78
2023/07/22 04:55:29;;;;;;;7.40;1.73;;;14.70;99.90;;;;;;5075726;28;20075;-78
2023/07/22 04:57:56;;;;;;;4.47;1.20;;;14.70;99.90;;;;;;5059081;28;20056;-78
2023/07/22 05:00:23;;;;;;;6.60;1.60;;;14.70;99.90;;;;;;5075291;28;20138;-78
2023/07/22 05:02:52;;;;;;;6.13;1.70;;;14.70;99.90;;;;;;5075773;28;20036;-78
2023/07/22 05:05:18;;;;;;;10.07;1.70;;;14.70;99.90;;;;;;5075312;28;20041;-78
2023/07/22 05:07:45;;;;;;;4.45;1.65;;;14.80;99.90;;;;;;5075788;28;20048;-79
2023/07/22 05:10:13;;;;;;;4.10;1.70;;;14.70;99.90;;;;;;5075693;28;20041;-78
2023/07/22 05:12:40;;;;;;;5.07;1.45;;;14.70;99.90;;;;;;5057666;28;20041;-78
2023/07/22 05:15:07;;;;;;;3.70;1.30;;;14.80;99.90;;;;;;5075421;28;20044;-79
2023/07/22 05:17:34;;;;;;;4.07;1.48;;;14.80;99.90;;;;;;5058694;28;20045;-78
2023/07/22 05:20:01;;;;;;;3.63;1.33;;;14.80;99.90;;;;;;5074680;28;20044;-78
2023/07/22 05:22:29;;;;;;;2.45;1.25;;;14.90;99.90;;;;;;5075566;28;20044;-79
2023/07/22 05:24:56;;;;;;;5.43;1.50;;;14.90;99.90;;;;;;5056968;28;20101;-78
2023/07/22 05:27:23;;;;;;;6.68;1.33;;;15.00;99.90;;;;;;5057773;28;20170;-79
2023/07/22 05:29:49;;;;;;;3.58;1.48;;;15.00;99.90;;;;;;5057925;28;20428;-78
2023/07/22 05:32:16;;;;;;;5.43;1.55;;;15.00;99.90;;;;;;5076431;28;20037;-79
2023/07/22 05:34:49;;;;;;;3.85;1.25;;;15.10;99.90;;;;;;5057466;28;20048;-78
2023/07/22 05:37:17;;;;;;;3.65;1.42;;;15.20;99.90;;;;;;5075561;28;20441;-78
2023/07/22 05:39:43;;;;;;;6.53;1.50;;;15.30;99.90;;;;;;5074574;28;20452;-78
2023/07/22 05:42:10;;;;;;;6.93;1.63;;;15.30;99.90;;;;;;5075301;28;20048;-79
2023/07/22 05:44:37;;;;;;;5.13;1.50;;;15.40;99.90;;;;;;5040704;28;20044;-78
2023/07/22 05:47:04;;;;;;;2.95;1.10;;;15.40;99.90;;;;;;5056555;28;20036;-78
2023/07/22 05:49:31;;;;;;;4.05;1.42;;;15.50;99.90;;;;;;5058051;28;20062;-78
2023/07/22 05:51:57;;;;;;;5.82;1.50;;;15.40;99.90;;;;;;5074411;28;20037;-78
2023/07/22 05:54:24;;;;;;;4.30;1.50;;;15.50;99.90;;;;;;5057784;28;20045;-78
2023/07/22 05:56:53;;;;;;;4.70;1.40;;;15.50;99.90;;;;;;5057392;28;20097;-79
2023/07/22 05:59:20;;;;;;;3.65;1.52;;;15.40;99.90;;;;;;5056930;28;20083;-78
2023/07/22 06:01:48;;;;;;;3.95;1.42;;;15.50;99.90;;;;;;5057847;28;20048;-80
2023/07/22 06:04:14;;;;;;;3.75;1.40;;;15.60;99.90;;;;;;5057374;28;20041;-79
2023/07/22 06:06:41;;;;;;;4.13;1.10;;;15.60;99.90;;;;;;5074213;28;20045;-79
2023/07/22 06:09:08;;;;;;;4.75;1.50;;;15.60;99.90;;;;;;5074475;28;20029;-79
2023/07/22 06:11:35;;;;;;;4.32;1.52;;;15.60;99.90;;;;;;5056440;28;20327;-79
2023/07/22 06:14:02;;;;;;;6.97;1.63;;;15.60;99.90;;;;;;5074867;28;20427;-79
2023/07/22 06:16:30;;;;;;;3.58;1.40;;;15.60;99.90;;;;;;5074625;28;20106;-79
2023/07/22 06:18:57;;;;;;;6.10;1.50;;;15.70;99.90;;;;;;5040003;28;20101;-78
2023/07/22 06:21:24;;;;;;;8.02;1.90;;;15.70;99.90;;;;;;5075020;28;20071;-79
2023/07/22 06:23:51;;;;;;;6.32;1.70;;;15.70;99.90;;;;;;5040666;28;20036;-79
2023/07/22 06:26:18;;;;;;;4.93;1.60;;;15.70;99.90;;;;;;5056041;28;20468;-80
2023/07/22 06:28:48;;;;;;;6.68;2.03;;;15.70;99.90;;;;;;5074764;28;20352;-79
2023/07/22 06:31:16;;;;;;;7.03;1.70;;;15.70;99.90;;;;;;5057568;28;20143;-79
2023/07/22 06:33:43;;;;;;;6.00;1.90;;;15.80;99.90;;;;;;5074073;28;20048;-79
2023/07/22 06:36:10;;;;;;;5.63;1.77;;;15.90;99.90;;;;;;5074605;28;20083;-79
2023/07/22 06:38:37;;;;;;;6.00;1.60;;;16.00;99.90;;;;;;5073553;28;20475;-79
2023/07/22 06:41:03;;;;;;;5.32;1.50;;;16.00;99.90;;;;;;5074584;28;20144;-79
2023/07/22 06:43:30;;;;;;;10.20;1.90;;;16.10;99.90;;;;;;5059643;28;20079;-79
2023/07/22 06:45:58;;;;;;;5.18;1.80;;;16.30;99.90;;;;;;5060274;28;20102;-80
2023/07/22 06:48:25;;;;;;;6.53;1.80;;;16.50;99.90;;;;;;5078736;28;20037;-79
2023/07/22 06:50:51;;;;;;;5.47;1.92;;;16.70;99.90;;;;;;5069140;28;20061;-79
2023/07/22 06:53:18;;;;;;;6.05;1.52;;;16.80;99.90;;;;;;5077438;28;20440;-79
2023/07/22 06:55:45;;;;;;;7.22;2.05;;;16.70;99.90;;;;;;5072073;28;20051;-80
2023/07/22 06:58:12;;;;;;;5.80;1.80;;;16.70;99.90;;;;;;5059777;28;20072;-79
2023/07/22 07:00:39;;;;;;;6.75;2.15;;;16.50;99.90;;;;;;5078470;28;20056;-80
2023/07/22 07:03:05;;;;;;;6.82;1.85;;;16.50;99.90;;;;;;5077994;28;20044;-80
2023/07/22 07:05:34;;;;;;;7.55;1.52;;;16.50;99.90;;;;;;5058991;28;20455;-80
2023/07/22 07:08:02;;;;;;;7.03;2.22;;;16.50;99.90;;;;;;5060560;28;20037;-81
2023/07/22 07:10:28;;;;;;;4.70;1.50;;;16.50;99.90;;;;;;5078009;28;20105;-81
2023/07/22 07:12:55;;;;;;;8.07;2.10;;;16.60;99.90;;;;;;5077448;28;20131;-81
2023/07/22 07:15:22;;;;;;;5.47;1.67;;;16.70;99.90;;;;;;5060205;28;20048;-81
2023/07/22 07:17:48;;;;;;;6.03;1.80;;;16.70;99.90;;;;;;5043803;28;20110;-81
2023/07/22 07:20:15;;;;;;;5.93;1.95;;;16.80;99.90;;;;;;5077079;28;20538;-81
2023/07/22 07:22:42;;;;;;;5.68;1.73;;;16.90;99.90;;;;;;5077545;28;20067;-80
2023/07/22 07:25:10;;;;;;;5.75;1.48;;;16.90;99.90;;;;;;5076662;28;20044;-81
2023/07/22 07:27:38;;;;;;;5.95;1.90;;;16.90;99.90;;;;;;5060284;28;20119;-79
2023/07/22 07:30:05;;;;;;;5.07;1.70;;;17.00;99.90;;;;;;5077421;28;20397;-81
2023/07/22 07:32:32;;;;;;;5.55;1.80;;;17.10;99.90;;;;;;5076288;28;20053;-80
2023/07/22 07:34:58;;;;;;;4.35;1.70;;;17.20;99.90;;;;;;5046505;28;20364;-80
2023/07/22 07:37:26;;;;;;;6.10;1.70;;;17.40;99.90;;;;;;5040036;28;20100;-82
2023/07/22 07:39:53;;;;;;;5.90;1.63;;;17.60;99.90;;;;;;5056682;28;20041;-81
2023/07/22 07:42:20;;;;;;;4.65;1.88;;;17.70;99.90;;;;;;5056225;28;20083;-79
2023/07/22 07:44:46;;;;;;;8.88;1.60;;;17.60;99.90;;;;;;5077710;28;20101;-80
2023/07/22 07:47:13;;;;;;;7.43;1.80;;;17.70;99.90;;;;;;5075344;28;20037;-82
2023/07/22 07:49:40;;;;;;;9.15;1.80;;;17.80;99.90;;;;;;5066550;28;20044;-80
2023/07/22 07:52:07;;;;;;;3.58;1.55;;;17.90;99.90;;;;;;5057386;28;20041;-81
2023/07/22 07:54:34;;;;;;;6.25;1.70;;;17.90;99.90;;;;;;5075249;28;20439;-81
2023/07/22 07:57:02;;;;;;;4.40;1.40;;;17.90;99.90;;;;;;5076203;28;20056;-80
2023/07/22 07:59:28;;;;;;;5.65;1.55;;;17.90;99.90;;;;;;5075257;28;20064;-80
2023/07/22 08:01:55;;;;;;;4.00;1.33;;;18.00;99.90;;;;;;5076222;28;20044;-80
2023/07/22 08:04:23;;;;;;;5.68;1.80;;;18.10;99.90;;;;;;5058115;28;20041;-80
2023/07/22 08:09:20;;;;;;;4.82;1.48;;;18.30;99.90;;;;;;5076148;28;20064;-80
2023/07/22 08:11:46;;;;;;;3.88;1.35;;;18.40;99.90;;;;;;5075241;28;20509;-80
2023/07/22 08:14:14;;;;;;;11.98;1.48;;;18.40;99.90;;;;;;5075576;28;20401;-81
2023/07/22 08:19:27;;;;;;;7.20;1.40;;;18.70;99.90;;;;;;5075035;28;20048;-81
2023/07/22 08:21:53;;;;;;;5.05;1.75;;;18.90;99.90;;;;;;5058173;28;20119;-79
2023/07/22 08:24:20;;;;;;;4.47;1.23;;;18.80;99.90;;;;;;5058090;28;20427;-81
2023/07/22 08:26:49;;;;;;;5.47;1.50;;;18.80;99.90;;;;;;5074935;28;20055;-81
2023/07/22 08:29:16;;;;;;;3.65;1.42;;;18.80;99.90;;;;;;5075558;28;20368;-80
2023/07/22 08:31:42;;;;;;;4.53;1.30;;;19.00;99.90;;;;;;5074927;28;20506;-82
2023/07/22 08:34:09;;;;;;;5.18;1.38;;;19.10;99.90;;;;;;5041611;28;20055;-81
2023/07/22 08:36:36;;;;;;;3.90;1.33;;;19.10;99.90;;;;;;5075346;28;20044;-81
2023/07/22 08:39:03;;;;;;;3.58;1.20;;;19.30;99.90;;;;;;5057144;28;20074;-82
2023/07/22 08:41:30;;;;;;;3.55;1.20;;;19.70;99.90;;;;;;5035325;28;1151151;-79
2023/07/22 08:43:57;;;;;;;4.50;1.30;;;19.60;99.90;;;;;;5076150;28;20079;-80
2023/07/22 08:46:24;;;;;;;3.72;1.30;;;19.80;99.90;;;;;;5041255;28;20072;-80
2023/07/22 08:48:51;;;;;;;3.00;1.20;;;19.70;99.90;;;;;;5076488;28;20501;-81
2023/07/22 08:51:18;;;;;;;5.32;1.50;;;19.60;99.90;;;;;;5076467;28;20044;-82
2023/07/22 08:53:45;;;;;;;5.22;1.60;;;19.60;99.90;;;;;;5058259;28;20049;-81
2023/07/22 08:56:26;;;;;;;3.83;1.30;;;19.70;99.90;;;;;;5076029;28;20505;-80
2023/07/22 08:58:53;;;;;;;4.70;1.40;;;20.00;99.90;;;;;;5075490;28;20044;-82
2023/07/22 09:01:20;;;;;;;4.07;1.50;;;20.10;99.90;;;;;;5076154;28;20049;-82
2023/07/22 09:03:47;;;;;;;5.40;1.50;;;20.30;99.90;;;;;;5058517;28;20052;-81
2023/07/22 09:06:18;;;;;;;5.22;1.75;;;20.60;99.90;;;;;;5057039;28;20052;-82
2023/07/22 09:08:45;;;;;;;5.35;1.75;;;20.40;99.90;;;;;;5075847;28;20508;-79
2023/07/22 09:11:11;;;;;;;4.97;1.70;;;20.10;99.90;;;;;;5058464;28;20043;-82
2023/07/22 09:13:39;;;;;;;6.85;1.80;;;19.70;99.90;;;;;;5075161;28;20071;-81
2023/07/22 09:16:07;;;;;;;5.72;1.60;;;19.50;99.90;;;;;;5075478;28;20048;-81
2023/07/22 09:18:34;;;;;;;6.00;1.80;;;19.50;99.90;;;;;;5074572;28;20048;-82
2023/07/22 09:21:01;;;;;;;3.97;1.40;;;19.30;99.90;;;;;;5058044;28;20468;-81
2023/07/22 09:23:27;;;;;;;5.47;1.70;;;19.00;99.90;;;;;;5074546;28;20048;-81
2023/07/22 09:25:55;;;;;;;4.97;1.70;;;18.90;99.90;;;;;;5073781;28;20040;-82
2023/07/22 09:28:22;;;;;;;5.03;1.55;;;18.70;99.90;;;;;;5074723;28;20032;-81
2023/07/22 09:30:49;;;;;;;6.82;1.70;;;18.50;99.90;;;;;;5074544;28;20102;-81
2023/07/22 09:33:15;;;;;;;5.50;1.73;;;18.40;99.90;;;;;;5056660;28;20483;-81
2023/07/22 09:35:44;;;;;;;7.55;2.00;;;18.40;99.90;;;;;;5074708;28;20040;-83
2023/07/22 09:38:11;;;;;;;6.47;1.67;;;18.20;99.90;;;;;;5073938;28;20048;-79
2023/07/22 09:40:38;;;;;;;7.32;2.03;;;18.00;99.90;;;;;;5074256;28;20131;-79
2023/07/22 09:43:05;;;;;;;6.47;2.13;;;17.70;99.90;;;;;;5074218;28;20121;-79
2023/07/22 09:45:32;;;;;;;6.22;1.73;;;17.30;99.90;;;;;;5073114;28;20045;-78
2023/07/22 09:47:58;;;;;;;6.93;2.22;;;17.30;99.90;;;;;;5074095;28;20028;-78
2023/07/22 09:50:25;;;;;;;4.60;1.60;;;17.50;99.90;;;;;;5073741;28;20371;-78
2023/07/22 09:52:52;;;;;;;4.93;1.67;;;17.90;99.90;;;;;;5073206;28;20062;-78
2023/07/22 09:55:19;;;;;;;5.00;1.60;;;18.10;99.90;;;;;;5054600;28;20075;-78
2023/07/22 09:57:45;;;;;;;4.63;1.50;;;18.20;99.90;;;;;;5074069;28;20041;-78
2023/07/22 10:00:14;;;;;;;6.95;1.60;;;18.30;99.90;;;;;;5073183;28;20063;-79
2023/07/22 10:02:41;;;;;;;5.55;1.77;;;18.50;99.90;;;;;;5074356;28;20074;-79
2023/07/22 10:05:08;;;;;;;4.95;1.58;;;19.00;99.90;;;;;;5072760;28;20036;-78
2023/07/22 10:07:35;;;;;;;8.13;1.80;;;19.30;99.90;;;;;;5073274;28;20064;-79
2023/07/22 10:10:03;;;;;;;6.47;1.80;;;19.60;99.90;;;;;;5073259;28;20524;-78
2023/07/22 10:12:30;;;;;;;5.85;1.80;;;19.70;99.90;;;;;;5072950;28;20147;-78
2023/07/22 10:14:56;;;;;;;5.78;1.75;;;19.70;99.90;;;;;;5065014;28;20041;-78
2023/07/22 10:17:24;;;;;;;5.90;1.63;;;19.60;99.90;;;;;;5072674;28;20459;-77
2023/07/22 10:19:51;;;;;;;5.53;1.90;;;19.80;99.90;;;;;;5072317;28;20068;-78
2023/07/22 10:22:17;;;;;;;7.90;1.83;;;19.90;99.90;;;;;;5073121;28;20082;-78
2023/07/22 10:24:44;;;;;;;8.27;1.63;;;20.20;99.90;;;;;;5073338;28;20132;-77
2023/07/22 10:27:11;;;;;;;6.50;2.03;;;20.30;99.90;;;;;;5055237;28;20809;-78
2023/07/22 10:29:38;;;;;;;7.78;1.85;;;20.30;99.90;;;;;;5073962;28;20455;-78
2023/07/22 10:32:04;;;;;;;10.50;2.25;;;20.30;99.90;;;;;;5073136;28;20387;-79
2023/07/22 10:34:31;;;;;;;5.90;2.00;;;20.40;99.90;;;;;;5070386;28;20049;-80
2023/07/22 10:37:04;;;;;;;9.00;2.10;;;20.30;99.90;;;;;;5051664;28;20121;-81
2023/07/22 10:39:31;;;;;;;7.57;1.85;;;20.10;99.90;;;;;;5072970;28;20040;-84
2023/07/22 10:41:57;;;;;;;5.82;1.90;;;19.90;99.90;;;;;;5056050;28;20064;-80
2023/07/22 10:44:24;;;;;;;7.07;2.28;;;19.60;99.90;;;;;;5073384;28;20036;-81
2023/07/22 10:46:52;;;;;;;8.70;2.25;;;19.40;99.90;;;;;;5073630;28;20098;-87
2023/07/22 10:49:18;;;;;;;7.25;2.20;;;19.20;99.90;;;;;;5056920;28;20162;-82
2023/07/22 10:51:45;;;;;;;8.95;2.10;;;19.30;99.90;;;;;;5056383;28;20052;-85
2023/07/22 10:54:12;;;;;;;7.57;2.15;;;19.50;99.90;;;;;;5055008;28;20170;-83
2023/07/22 10:56:40;;;;;;;6.32;1.85;;;19.80;99.90;;;;;;5056390;28;20055;-81
2023/07/22 10:59:07;;;;;;;5.65;1.80;;;20.00;99.90;;;;;;5055755;28;20063;-82
2023/07/22 11:01:33;;;;;;;9.35;1.98;;;20.00;99.90;;;;;;5056550;28;20509;-79
2023/07/22 11:04:01;;;;;;;5.47;1.90;;;20.20;99.90;;;;;;5073430;28;20040;-80
2023/07/22 11:09:14;;;;;;;6.53;1.90;;;20.30;99.90;;;;;;5073490;28;20044;-80
2023/07/22 11:11:41;;;;;;;4.97;1.80;;;20.20;99.90;;;;;;5072693;28;20044;-79
2023/07/22 11:14:07;;;;;;;5.97;1.85;;;20.10;99.90;;;;;;5073909;28;20041;-80
2023/07/22 11:16:34;;;;;;;6.78;1.77;;;20.20;99.90;;;;;;5074144;28;20114;-80
2023/07/22 11:19:01;;;;;;;4.97;1.80;;;20.20;99.90;;;;;;5072808;28;20044;-79
2023/07/22 11:21:27;;;;;;;14.90;2.10;;;20.30;99.90;;;;;;5056022;28;20074;-79
2023/07/22 11:23:54;;;;;;;5.72;1.70;;;20.30;99.90;;;;;;5073643;28;20075;-80
2023/07/22 11:26:22;;;;;;;8.80;1.88;;;20.10;99.90;;;;;;5072362;28;20393;-80
2023/07/22 11:28:49;;;;;;;7.90;1.65;;;19.90;99.90;;;;;;5074451;28;20455;-79
2023/07/22 11:31:15;;;;;;;4.68;1.58;;;19.80;99.90;;;;;;5076550;28;20102;-79
2023/07/22 11:33:44;;;;;;;5.07;1.70;;;20.10;99.90;;;;;;5076203;28;20127;-82
2023/07/22 11:36:13;;;;;;;5.18;1.77;;;20.40;99.90;;;;;;5059767;28;20102;-82
2023/07/22 11:38:39;;;;;;;5.72;1.50;;;20.30;99.90;;;;;;5076310;28;20048;-82
2023/07/22 11:41:06;;;;;;;5.78;1.75;;;20.30;99.90;;;;;;5043185;28;20379;-83
2023/07/22 11:43:33;;;;;;;6.50;1.80;;;20.30;99.90;;;;;;5077400;28;20098;-81
2023/07/22 11:46:00;;;;;;;5.60;2.03;;;20.30;99.90;;;;;;5058776;28;20108;-81
2023/07/22 11:48:27;;;;;;;5.18;2.00;;;20.10;99.90;;;;;;5066068;28;20051;-82
2023/07/22 11:50:54;;;;;;;7.32;2.00;;;19.90;99.90;;;;;;5059716;28;20050;-81
2023/07/22 11:53:21;;;;;;;5.82;1.80;;;19.80;99.90;;;;;;5077872;28;20097;-83
2023/07/22 11:55:48;;;;;;;6.35;1.60;;;19.60;99.90;;;;;;5076868;28;20041;-85
2023/07/22 11:58:14;;;;;;;6.72;2.40;;;19.50;99.90;;;;;;5058985;28;20383;-86
2023/07/22 12:00:41;;;;;;;8.25;1.90;;;19.30;99.90;;;;;;5077258;28;20075;-86
2023/07/22 12:03:18;;;;;;;5.35;1.50;;;18.80;99.90;;;;;;5059788;28;20056;-80
2023/07/22 12:05:46;;;;;;;10.88;2.60;;;18.40;99.90;;;;;;5075966;28;20047;-83
2023/07/22 12:08:12;;;;;;;6.70;2.40;;;18.20;99.90;;;;;;5077728;28;20553;-84
2023/07/22 12:10:39;;;;;;;8.00;2.00;;;17.90;99.90;;;;;;5077131;28;20115;-83
2023/07/22 12:13:06;;;;;;;5.45;1.90;;;17.80;99.90;;;;;;5058748;28;20048;-83
2023/07/22 12:15:33;;;;;;;6.93;2.30;;;17.60;99.90;;;;;;5059726;28;20044;-81
2023/07/22 12:18:00;;;;;;;5.15;1.85;;;17.40;99.90;;;;;;5043109;28;20048;-79
2023/07/22 12:20:27;;;;;;;9.98;2.15;;;17.30;99.90;;;;;;5076059;28;20517;-81
2023/07/22 12:22:54;;;;;;;7.30;2.63;;;17.20;99.90;;;;;;5076481;28;20055;-81
2023/07/22 12:25:20;;;;;;;7.03;2.28;;;17.10;99.90;;;;;;5075548;28;20055;-83
2023/07/22 12:27:47;;;;;;;8.48;2.47;;;16.90;99.90;;;;;;5059424;28;20048;-81
2023/07/22 12:30:15;;;;;;;8.70;2.53;;;16.60;99.90;;;;;;5076744;28;20098;-80
2023/07/22 12:32:45;;;;;;;8.48;2.28;;;16.60;99.90;;;;;;5075522;28;20467;-83
2023/07/22 12:35:13;;;;;;;8.00;2.40;;;16.40;99.90;;;;;;5076205;28;20530;-83
2023/07/22 12:37:40;;;;;;;7.25;2.50;;;16.30;99.90;;;;;;5075574;28;20478;-80
2023/07/22 12:40:08;;;;;;;7.85;2.67;;;16.30;99.90;;;;;;5074176;28;20098;-80
2023/07/22 12:42:35;;;;;;;7.47;2.35;;;16.10;99.90;;;;;;5076003;28;20060;-80
2023/07/22 12:45:02;;;;;;;7.05;2.40;;;16.00;99.90;;;;;;5074697;28;20455;-81
2023/07/22 12:47:30;;;;;;;11.20;2.47;;;15.90;99.90;;;;;;5075574;28;20048;-83
2023/07/22 12:49:56;;;;;;;9.63;2.50;;;15.90;99.90;;;;;;5057974;28;20781;-81
2023/07/22 12:52:23;;;;;;;11.82;2.47;;;15.90;99.90;;;;;;5074784;28;20048;-82
2023/07/22 12:54:50;;;;;;;8.40;2.70;;;15.90;99.90;;;;;;5074854;28;20110;-81